createdAt,value
2022-10-06T00:00:13.015Z,62.10
2022-10-06T00:02:39.761Z,62.20
2022-10-06T00:05:09.020Z,62.20
2022-10-06T00:07:36.519Z,62.30
2022-10-06T00:10:07.207Z,62.40
2022-10-06T00:12:52.565Z,62.50
2022-10-06T00:15:26.459Z,62.80
2022-10-06T00:17:58.879Z,62.60
2022-10-06T00:20:32.338Z,62.40
2022-10-06T00:23:02.244Z,62.60
2022-10-06T00:25:33.650Z,62.70
2022-10-06T00:28:02.722Z,62.80
2022-10-06T00:30:31.171Z,62.90
2022-10-06T00:33:04.484Z,63.00
2022-10-06T00:35:34.476Z,63.20
2022-10-06T00:38:04.794Z,63.10
2022-10-06T00:40:35.411Z,63.20
2022-10-06T00:43:27.133Z,63.30
2022-10-06T00:45:58.466Z,63.40
2022-10-06T00:48:27.860Z,63.30
2022-10-06T00:51:02.224Z,63.20
2022-10-06T00:53:33.731Z,63.40
2022-10-06T00:56:00.442Z,63.20
2022-10-06T00:58:27.565Z,63.20
2022-10-06T01:00:59.661Z,63.30
2022-10-06T01:03:40.954Z,63.50
2022-10-06T01:06:10.953Z,63.40
2022-10-06T01:08:39.019Z,63.80
2022-10-06T01:11:13.141Z,63.30
2022-10-06T01:13:44.356Z,63.30
2022-10-06T01:16:26.452Z,63.40
2022-10-06T01:18:58.293Z,63.90
2022-10-06T01:21:51.657Z,63.70
2022-10-06T01:24:21.702Z,64.00
2022-10-06T01:26:54.672Z,63.60
2022-10-06T01:29:21.866Z,63.80
2022-10-06T01:31:50.994Z,63.80
2022-10-06T01:34:20.842Z,63.90
2022-10-06T01:36:47.584Z,63.80
2022-10-06T01:39:16.374Z,63.80
2022-10-06T01:41:43.132Z,63.90
2022-10-06T01:44:14.386Z,63.90
2022-10-06T01:46:43.674Z,64.00
2022-10-06T01:49:10.416Z,64.00
2022-10-06T01:51:37.229Z,64.00
2022-10-06T01:54:04.126Z,64.00
2022-10-06T01:56:33.134Z,64.00
2022-10-06T01:59:02.090Z,64.10
2022-10-06T02:01:31.218Z,64.20
2022-10-06T02:04:00.106Z,64.20
2022-10-06T02:06:26.980Z,64.20
2022-10-06T02:08:55.824Z,64.10
2022-10-06T02:11:24.764Z,64.10
2022-10-06T02:13:53.957Z,64.10
2022-10-06T02:16:21.071Z,64.30
2022-10-06T02:18:48.052Z,64.20
2022-10-06T02:21:21.516Z,64.20
2022-10-06T02:23:51.495Z,64.30
2022-10-06T02:26:21.033Z,64.30
2022-10-06T02:28:49.753Z,64.50
2022-10-06T02:31:17.137Z,64.50
2022-10-06T02:33:44.929Z,64.60
2022-10-06T02:36:17.803Z,64.70
2022-10-06T02:38:47.445Z,64.90
2022-10-06T02:41:14.200Z,64.70
2022-10-06T02:43:43.639Z,64.70
2022-10-06T02:46:15.342Z,64.80
2022-10-06T02:48:50.147Z,65.00
2022-10-06T02:51:22.077Z,64.90
2022-10-06T02:53:54.049Z,64.90
2022-10-06T02:56:24.576Z,64.80
2022-10-06T02:58:53.375Z,64.90
2022-10-06T03:01:28.087Z,64.80
2022-10-06T03:03:55.141Z,64.90
2022-10-06T03:06:29.114Z,64.80
2022-10-06T03:09:15.454Z,64.90
2022-10-06T03:11:45.578Z,64.70
2022-10-06T03:14:12.372Z,64.70
2022-10-06T03:16:42.346Z,64.70
2022-10-06T03:19:10.464Z,64.70
2022-10-06T03:21:45.506Z,64.70
2022-10-06T03:24:15.564Z,64.90
2022-10-06T03:26:50.291Z,64.70
2022-10-06T03:29:17.107Z,64.80
2022-10-06T03:31:44.116Z,64.50
2022-10-06T03:34:15.351Z,64.40
2022-10-06T03:36:42.533Z,64.40
2022-10-06T03:39:11.640Z,64.30
2022-10-06T03:41:38.898Z,64.40
2022-10-06T03:44:07.955Z,64.30
2022-10-06T03:46:36.501Z,64.30
2022-10-06T03:49:06.116Z,64.90
2022-10-06T03:51:44.537Z,64.20
2022-10-06T03:54:15.086Z,64.10
2022-10-06T03:56:42.719Z,63.90
2022-10-06T03:59:16.342Z,63.90
2022-10-06T04:01:48.736Z,63.60
2022-10-06T04:04:15.616Z,63.40
2022-10-06T04:06:46.697Z,63.40
2022-10-06T04:09:16.577Z,63.30
2022-10-06T04:11:44.894Z,63.20
2022-10-06T04:14:16.372Z,63.20
2022-10-06T04:16:50.659Z,62.90
2022-10-06T04:19:19.751Z,62.80
2022-10-06T04:21:49.771Z,62.80
2022-10-06T04:24:19.109Z,62.80
2022-10-06T04:26:48.762Z,62.80
2022-10-06T04:29:22.624Z,62.80
2022-10-06T04:31:54.035Z,62.80
2022-10-06T04:34:24.210Z,62.70
2022-10-06T04:36:53.485Z,62.80
2022-10-06T04:39:22.757Z,62.80
2022-10-06T04:41:50.671Z,62.80
2022-10-06T04:44:17.405Z,62.70
2022-10-06T04:46:48.800Z,62.70
2022-10-06T04:49:20.390Z,62.60
2022-10-06T04:51:51.499Z,62.60
2022-10-06T04:54:20.901Z,62.60
2022-10-06T04:56:50.130Z,62.50
2022-10-06T04:59:19.088Z,62.30
2022-10-06T05:01:50.616Z,62.40
2022-10-06T05:04:24.237Z,62.40
2022-10-06T05:06:58.034Z,62.20
2022-10-06T05:09:27.284Z,62.10
2022-10-06T05:11:56.595Z,62.10
2022-10-06T05:14:28.375Z,62.00
2022-10-06T05:16:55.197Z,61.90
2022-10-06T05:19:24.223Z,61.90
2022-10-06T05:21:53.971Z,61.90
2022-10-06T05:24:22.827Z,62.00
2022-10-06T05:26:51.627Z,61.90
2022-10-06T05:29:22.985Z,61.80
2022-10-06T05:31:49.801Z,61.80
2022-10-06T05:34:19.396Z,61.70
2022-10-06T05:36:48.429Z,61.80
2022-10-06T05:39:15.153Z,61.90
2022-10-06T05:41:48.600Z,61.90
2022-10-06T05:44:17.366Z,62.00
2022-10-06T05:46:46.665Z,62.00
2022-10-06T05:49:15.891Z,62.00
2022-10-06T05:51:45.324Z,62.20
2022-10-06T05:54:16.687Z,62.20
2022-10-06T05:56:45.876Z,62.20
2022-10-06T05:59:15.656Z,62.20
2022-10-06T06:01:45.747Z,62.10
2022-10-06T06:04:15.318Z,62.10
2022-10-06T06:06:48.797Z,62.10
2022-10-06T06:09:19.689Z,62.10
2022-10-06T06:11:54.042Z,62.00
2022-10-06T06:14:43.886Z,61.80
2022-10-06T06:17:11.346Z,61.90
2022-10-06T06:19:40.196Z,61.90
2022-10-06T06:22:06.984Z,61.90
2022-10-06T06:24:33.717Z,61.90
2022-10-06T06:27:00.496Z,61.90
2022-10-06T06:29:27.868Z,61.90
2022-10-06T06:31:56.646Z,61.90
2022-10-06T06:34:23.398Z,61.90
2022-10-06T06:36:55.046Z,61.90
2022-10-06T06:39:25.330Z,61.90
2022-10-06T06:41:56.817Z,61.90
2022-10-06T06:44:28.212Z,61.90
2022-10-06T06:46:59.178Z,62.00
2022-10-06T06:49:30.984Z,61.90
2022-10-06T06:51:59.800Z,61.80
2022-10-06T06:54:28.560Z,62.00
2022-10-06T06:57:00.479Z,61.90
2022-10-06T06:59:34.007Z,61.80
2022-10-06T07:02:03.412Z,61.90
2022-10-06T07:04:30.904Z,61.80
2022-10-06T07:06:58.249Z,61.80
2022-10-06T07:09:27.523Z,61.80
2022-10-06T07:11:56.601Z,61.70
2022-10-06T07:14:25.625Z,61.80
2022-10-06T07:17:11.383Z,61.80
2022-10-06T07:20:13.411Z,61.80
2022-10-06T07:23:03.160Z,61.60
2022-10-06T07:25:30.102Z,61.50
2022-10-06T07:27:59.152Z,61.50
2022-10-06T07:30:29.190Z,61.40
2022-10-06T07:32:58.415Z,61.30
2022-10-06T07:35:28.212Z,61.20
2022-10-06T07:38:07.880Z,61.20
2022-10-06T07:40:35.516Z,60.80
2022-10-06T07:43:02.522Z,61.10
2022-10-06T07:45:49.704Z,61.10
2022-10-06T07:48:20.319Z,60.80
2022-10-06T07:50:52.492Z,60.60
2022-10-06T07:53:21.518Z,60.50
2022-10-06T07:55:51.900Z,60.30
2022-10-06T07:58:23.855Z,60.20
2022-10-06T08:00:53.122Z,60.20
2022-10-06T08:03:20.996Z,60.30
2022-10-06T08:05:59.499Z,60.10
2022-10-06T08:08:30.618Z,59.40
2022-10-06T08:11:01.667Z,60.00
2022-10-06T08:13:32.110Z,60.00
2022-10-06T08:16:30.960Z,60.00
2022-10-06T08:18:59.437Z,59.60
2022-10-06T08:21:30.762Z,59.70
2022-10-06T08:23:59.103Z,59.70
2022-10-06T08:26:30.925Z,59.70
2022-10-06T08:29:02.972Z,59.50
2022-10-06T08:31:35.612Z,59.40
2022-10-06T08:34:08.705Z,59.10
2022-10-06T08:36:45.009Z,59.10
2022-10-06T08:39:21.232Z,59.00
2022-10-06T08:41:54.624Z,59.00
2022-10-06T08:44:42.951Z,58.70
2022-10-06T08:47:19.128Z,58.60
2022-10-06T08:49:49.297Z,58.80
2022-10-06T08:52:41.172Z,58.80
2022-10-06T08:55:37.413Z,58.40
2022-10-06T08:58:40.342Z,58.40
2022-10-06T09:01:33.163Z,58.40
2022-10-06T09:04:05.030Z,58.50
2022-10-06T09:06:59.872Z,58.10
2022-10-06T09:09:48.941Z,58.00
2022-10-06T09:12:53.578Z,57.70
2022-10-06T09:15:44.851Z,57.70
2022-10-06T09:21:49.075Z,57.40
2022-10-06T09:24:46.940Z,57.50
2022-10-06T09:27:26.034Z,57.60
2022-10-06T09:29:53.346Z,57.50
2022-10-06T09:32:26.638Z,58.00
2022-10-06T09:34:56.866Z,57.20
2022-10-06T09:37:29.476Z,57.10
2022-10-06T09:40:00.915Z,57.60
2022-10-06T09:42:35.451Z,56.80
2022-10-06T09:45:17.562Z,56.70
2022-10-06T09:47:47.704Z,56.00
2022-10-06T09:50:28.427Z,56.70
2022-10-06T09:52:57.940Z,55.90
2022-10-06T09:55:33.659Z,56.70
2022-10-06T09:58:03.916Z,56.60
2022-10-06T10:00:35.650Z,56.80
2022-10-06T10:03:15.936Z,56.40
2022-10-06T10:06:02.114Z,56.10
2022-10-06T10:11:27.467Z,56.50
2022-10-06T10:13:58.210Z,55.20
2022-10-06T10:16:34.323Z,54.90
2022-10-06T10:19:05.488Z,54.20
2022-10-06T10:21:38.553Z,54.00
2022-10-06T10:24:23.289Z,53.80
2022-10-06T10:27:00.327Z,53.40
2022-10-06T10:29:52.462Z,52.90
2022-10-06T10:32:45.097Z,52.70
2022-10-06T10:35:27.499Z,51.00
2022-10-06T10:38:02.106Z,51.20
2022-10-06T10:40:45.548Z,50.20
2022-10-06T10:43:55.599Z,50.70
2022-10-06T10:46:39.880Z,49.20
2022-10-06T10:49:17.402Z,49.30
2022-10-06T10:52:12.305Z,49.10
2022-10-06T10:54:51.122Z,48.10
2022-10-06T10:57:34.996Z,48.90
2022-10-06T11:00:16.062Z,47.70
2022-10-06T11:02:43.379Z,47.80
2022-10-06T11:05:52.467Z,48.00
2022-10-06T11:09:03.461Z,46.30
2022-10-06T11:12:03.534Z,47.40
2022-10-06T11:14:55.707Z,47.00
2022-10-06T11:17:50.462Z,45.10
2022-10-06T11:20:42.616Z,45.50
2022-10-06T11:23:30.414Z,45.10
2022-10-06T11:26:24.860Z,44.00
2022-10-06T11:29:57.104Z,43.60
2022-10-06T11:32:45.167Z,42.50
2022-10-06T11:35:24.134Z,43.90
2022-10-06T11:38:16.321Z,42.40
2022-10-06T11:41:24.452Z,43.40
2022-10-06T11:44:04.870Z,41.30
2022-10-06T11:47:02.077Z,41.90
2022-10-06T11:49:28.723Z,41.50
2022-10-06T11:52:00.117Z,41.90
2022-10-06T11:54:39.907Z,41.20
2022-10-06T11:57:30.608Z,40.60
2022-10-06T12:00:12.629Z,40.40
2022-10-06T12:02:42.669Z,40.30
2022-10-06T12:05:35.060Z,40.00
2022-10-06T12:08:02.083Z,39.60
2022-10-06T12:10:28.777Z,39.80
2022-10-06T12:13:49.294Z,39.50
2022-10-06T12:19:49.421Z,39.00
2022-10-06T12:22:24.730Z,38.30
2022-10-06T12:25:02.988Z,38.40
2022-10-06T12:28:02.586Z,37.90
2022-10-06T12:31:07.629Z,38.30
2022-10-06T12:33:40.574Z,38.70
2022-10-06T12:36:26.226Z,38.10
2022-10-06T12:39:02.359Z,38.40
2022-10-06T12:42:18.161Z,37.10
2022-10-06T12:44:49.835Z,37.20
2022-10-06T12:47:37.048Z,36.00
2022-10-06T12:50:26.039Z,35.70
2022-10-06T12:53:16.924Z,36.30
2022-10-06T12:55:59.830Z,35.80
2022-10-06T12:58:32.604Z,37.30
2022-10-06T13:01:18.287Z,37.50
2022-10-06T13:03:52.184Z,36.90
2022-10-06T13:06:25.344Z,36.00
2022-10-06T13:09:15.447Z,35.60
2022-10-06T13:11:42.187Z,36.10
2022-10-06T13:14:16.059Z,35.50
2022-10-06T13:16:48.621Z,34.90
2022-10-06T13:19:28.246Z,34.70
2022-10-06T13:21:55.234Z,33.80
2022-10-06T13:24:29.163Z,34.60
2022-10-06T13:26:56.657Z,34.40
2022-10-06T13:29:26.186Z,34.80
2022-10-06T13:32:02.480Z,34.60
2022-10-06T13:34:42.972Z,34.90
2022-10-06T13:37:17.574Z,34.30
2022-10-06T13:39:46.747Z,33.60
2022-10-06T13:42:24.320Z,33.90
2022-10-06T13:45:04.869Z,33.50
2022-10-06T13:47:31.714Z,32.70
2022-10-06T13:50:22.181Z,33.80
2022-10-06T13:52:51.202Z,32.60
2022-10-06T13:55:23.927Z,33.40
2022-10-06T13:58:03.286Z,32.90
2022-10-06T14:00:56.192Z,33.10
2022-10-06T14:06:22.081Z,33.20
2022-10-06T14:08:57.511Z,31.70
2022-10-06T14:11:28.357Z,31.90
2022-10-06T14:14:04.631Z,32.40
2022-10-06T14:16:31.844Z,31.70
2022-10-06T14:19:07.207Z,31.60
2022-10-06T14:21:46.558Z,31.40
2022-10-06T14:24:19.353Z,31.60
2022-10-06T14:26:54.761Z,31.80
2022-10-06T14:29:25.719Z,31.70
2022-10-06T14:31:55.056Z,32.10
2022-10-06T14:34:24.404Z,32.30
2022-10-06T14:36:51.778Z,32.10
2022-10-06T14:39:21.423Z,32.30
2022-10-06T14:41:48.272Z,31.80
2022-10-06T14:44:16.043Z,32.00
2022-10-06T14:46:52.477Z,32.10
2022-10-06T14:49:20.271Z,32.20
2022-10-06T14:51:47.121Z,32.30
2022-10-06T14:54:21.535Z,32.20
2022-10-06T14:56:53.088Z,32.30
2022-10-06T14:59:24.809Z,32.50
2022-10-06T15:01:51.569Z,32.50
2022-10-06T15:04:24.985Z,32.60
2022-10-06T15:07:12.557Z,32.60
2022-10-06T15:09:42.759Z,32.80
2022-10-06T15:12:14.432Z,32.80
2022-10-06T15:14:43.590Z,32.60
2022-10-06T15:17:13.347Z,32.70
2022-10-06T15:19:40.287Z,32.90
2022-10-06T15:22:11.543Z,32.90
2022-10-06T15:24:40.647Z,33.00
2022-10-06T15:27:25.650Z,33.20
2022-10-06T15:29:52.342Z,33.30
2022-10-06T15:32:22.367Z,33.30
2022-10-06T15:34:53.264Z,33.30
2022-10-06T15:37:22.530Z,33.30
2022-10-06T15:39:49.382Z,33.40
2022-10-06T15:42:21.504Z,33.50
2022-10-06T15:44:48.558Z,33.50
2022-10-06T15:47:20.774Z,33.60
2022-10-06T15:49:49.332Z,33.80
2022-10-06T15:52:17.377Z,33.80
2022-10-06T15:54:46.345Z,33.80
2022-10-06T15:57:19.445Z,34.00
2022-10-06T15:59:52.229Z,34.10
2022-10-06T16:02:22.749Z,34.00
2022-10-06T16:04:55.301Z,34.00
2022-10-06T16:07:22.113Z,33.90
2022-10-06T16:09:51.408Z,34.00
2022-10-06T16:12:22.847Z,34.10
2022-10-06T16:14:49.918Z,34.20
2022-10-06T16:17:17.930Z,34.40
2022-10-06T16:19:45.306Z,35.10
2022-10-06T16:22:15.294Z,34.50
2022-10-06T16:24:44.325Z,34.60
2022-10-06T16:27:20.375Z,34.70
2022-10-06T16:29:49.796Z,34.70
2022-10-06T16:32:18.554Z,34.80
2022-10-06T16:34:50.392Z,35.00
2022-10-06T16:37:17.255Z,35.00
2022-10-06T16:39:46.037Z,35.10
2022-10-06T16:42:12.815Z,35.30
2022-10-06T16:44:41.605Z,35.40
2022-10-06T16:47:08.407Z,35.40
2022-10-06T16:49:39.966Z,35.60
2022-10-06T16:52:06.680Z,35.80
2022-10-06T16:54:33.398Z,35.90
2022-10-06T16:57:06.420Z,36.00
2022-10-06T16:59:33.155Z,36.20
2022-10-06T17:01:59.871Z,36.30
2022-10-06T17:04:31.172Z,36.50
2022-10-06T17:06:58.016Z,36.70
2022-10-06T17:09:34.199Z,36.80
2022-10-06T17:12:03.879Z,37.20
2022-10-06T17:14:34.377Z,37.30
2022-10-06T17:17:04.752Z,37.50
2022-10-06T17:19:34.049Z,37.70
2022-10-06T17:22:00.817Z,38.00
2022-10-06T17:24:31.148Z,38.00
2022-10-06T17:26:58.956Z,38.40
2022-10-06T17:29:28.618Z,39.00
2022-10-06T17:32:00.149Z,38.50
2022-10-06T17:34:32.649Z,38.60
2022-10-06T17:37:04.188Z,38.90
2022-10-06T17:39:31.054Z,38.80
2022-10-06T17:42:00.438Z,39.00
2022-10-06T17:44:28.653Z,39.20
2022-10-06T17:47:00.115Z,39.40
2022-10-06T17:49:34.468Z,39.60
2022-10-06T17:52:02.089Z,39.60
2022-10-06T17:54:31.651Z,39.70
2022-10-06T17:56:59.157Z,39.80
2022-10-06T17:59:30.106Z,40.70
2022-10-06T18:02:00.500Z,40.20
2022-10-06T18:04:33.710Z,40.40
2022-10-06T18:07:00.525Z,40.40
2022-10-06T18:09:29.553Z,40.60
2022-10-06T18:12:00.333Z,40.70
2022-10-06T18:14:33.175Z,41.00
2022-10-06T18:17:02.410Z,41.30
2022-10-06T18:19:36.745Z,41.00
2022-10-06T18:22:10.718Z,41.50
2022-10-06T18:24:40.490Z,41.30
2022-10-06T18:27:14.006Z,41.50
2022-10-06T18:29:43.225Z,41.50
2022-10-06T18:33:59.421Z,41.60
2022-10-06T18:37:55.784Z,42.00
2022-10-06T18:40:28.323Z,42.30
2022-10-06T18:42:57.594Z,42.30
2022-10-06T18:45:42.710Z,42.50
2022-10-06T18:48:30.614Z,42.60
2022-10-06T18:51:04.281Z,42.70
2022-10-06T18:53:36.170Z,43.20
2022-10-06T18:56:06.845Z,43.00
2022-10-06T18:58:47.036Z,43.20
2022-10-06T19:01:14.788Z,44.20
2022-10-06T19:03:46.256Z,43.40
2022-10-06T19:06:13.052Z,43.70
2022-10-06T19:08:40.182Z,43.50
2022-10-06T19:11:29.184Z,43.70
2022-10-06T19:13:59.976Z,43.90
2022-10-06T19:16:26.844Z,44.10
2022-10-06T19:18:55.810Z,44.00
2022-10-06T19:21:25.084Z,44.20
2022-10-06T19:23:55.585Z,44.60
2022-10-06T19:26:27.101Z,44.70
2022-10-06T19:28:56.069Z,44.80
2022-10-06T19:31:25.077Z,44.70
2022-10-06T19:33:52.051Z,44.70
2022-10-06T19:36:18.888Z,44.80
2022-10-06T19:38:49.006Z,45.00
2022-10-06T19:41:36.837Z,45.10
2022-10-06T19:44:06.096Z,45.20
2022-10-06T19:46:32.886Z,45.20
2022-10-06T19:49:05.391Z,45.30
2022-10-06T19:51:38.464Z,45.40
2022-10-06T19:54:05.243Z,45.60
2022-10-06T19:56:34.655Z,45.60
2022-10-06T19:59:04.637Z,45.70
2022-10-06T20:01:37.316Z,45.90
2022-10-06T20:04:09.778Z,46.00
2022-10-06T20:06:41.236Z,46.10
2022-10-06T20:09:16.931Z,46.10
2022-10-06T20:11:46.516Z,46.60
2022-10-06T20:14:21.089Z,46.30
2022-10-06T20:16:53.037Z,46.50
2022-10-06T20:19:25.195Z,46.50
2022-10-06T20:21:55.241Z,46.40
2022-10-06T20:24:27.863Z,46.60
2022-10-06T20:26:57.279Z,46.90
2022-10-06T20:29:26.294Z,46.80
2022-10-06T20:31:58.755Z,46.90
2022-10-06T20:34:32.264Z,47.20
2022-10-06T20:37:05.882Z,47.30
2022-10-06T20:39:52.495Z,47.30
2022-10-06T20:42:20.954Z,47.60
2022-10-06T20:44:50.358Z,47.40
2022-10-06T20:47:17.102Z,47.60
2022-10-06T20:49:46.282Z,47.70
2022-10-06T20:52:15.593Z,47.80
2022-10-06T20:54:42.541Z,48.20
2022-10-06T20:57:11.987Z,47.90
2022-10-06T20:59:41.550Z,48.20
2022-10-06T21:02:10.332Z,48.10
2022-10-06T21:04:43.281Z,48.30
2022-10-06T21:07:09.975Z,48.20
2022-10-06T21:09:38.860Z,48.90
2022-10-06T21:12:15.917Z,48.40
2022-10-06T21:14:42.603Z,48.70
2022-10-06T21:17:14.211Z,48.60
2022-10-06T21:19:45.849Z,48.70
2022-10-06T21:22:12.634Z,48.80
2022-10-06T21:24:39.313Z,48.80
2022-10-06T21:27:06.018Z,48.90
2022-10-06T21:29:32.778Z,48.90
2022-10-06T21:32:04.287Z,49.00
2022-10-06T21:34:33.948Z,49.40
2022-10-06T21:37:03.211Z,49.20
2022-10-06T21:39:32.114Z,49.40
2022-10-06T21:42:02.053Z,49.40
2022-10-06T21:44:28.719Z,49.30
2022-10-06T21:46:56.008Z,49.30
2022-10-06T21:49:28.083Z,49.40
2022-10-06T21:52:04.628Z,49.60
2022-10-06T21:54:31.617Z,49.70
2022-10-06T21:57:02.905Z,49.70
2022-10-06T21:59:29.634Z,49.80
2022-10-06T22:01:56.684Z,49.90
2022-10-06T22:04:28.345Z,50.00
2022-10-06T22:06:55.070Z,50.10
2022-10-06T22:09:22.009Z,50.20
2022-10-06T22:11:49.580Z,50.20
2022-10-06T22:14:19.170Z,50.30
2022-10-06T22:16:50.850Z,50.40
2022-10-06T22:19:18.046Z,50.30
2022-10-06T22:21:48.032Z,50.30
2022-10-06T22:24:21.332Z,50.40
2022-10-06T22:26:51.556Z,50.90
2022-10-06T22:29:22.759Z,50.40
2022-10-06T22:31:49.765Z,50.60
2022-10-06T22:34:20.607Z,50.50
2022-10-06T22:36:50.441Z,50.90
2022-10-06T22:39:21.879Z,50.60
2022-10-06T22:41:50.775Z,50.70
2022-10-06T22:44:19.552Z,50.80
2022-10-06T22:46:48.383Z,50.80
2022-10-06T22:49:15.201Z,50.90
2022-10-06T22:51:41.930Z,51.00
2022-10-06T22:54:19.026Z,51.10
2022-10-06T22:56:46.159Z,51.60
2022-10-06T22:59:20.063Z,51.20
2022-10-06T23:01:46.718Z,51.30
2022-10-06T23:04:16.138Z,51.30
2022-10-06T23:06:47.326Z,51.40
2022-10-06T23:09:16.530Z,51.60
2022-10-06T23:11:47.946Z,51.50
2022-10-06T23:14:14.669Z,51.80
2022-10-06T23:16:46.126Z,51.70
2022-10-06T23:19:13.049Z,51.80
2022-10-06T23:21:40.191Z,52.00
2022-10-06T23:24:09.264Z,52.00
2022-10-06T23:26:38.361Z,52.20
2022-10-06T23:29:06.417Z,52.20
2022-10-06T23:31:33.278Z,52.20
2022-10-06T23:34:04.555Z,52.20
2022-10-06T23:36:31.358Z,52.30
2022-10-06T23:38:59.348Z,52.30
2022-10-06T23:41:31.003Z,52.30
2022-10-06T23:43:57.701Z,52.30
2022-10-06T23:46:24.426Z,52.30
2022-10-06T23:48:53.650Z,52.30
2022-10-06T23:51:20.344Z,52.40
2022-10-06T23:53:51.985Z,52.50
2022-10-06T23:56:20.584Z,52.50
2022-10-06T23:58:50.003Z,52.60
